Local Weather Ingen bokad jour idag Wednesday 28th of September
Flygplats METAR TAF
Airport METAR TAF
ESSL - Linköping280150Z AUTO 21010KT 170V240 9999 BKN052/// 14/11 Q1012= NO VALID TAF PUBLISHED
ESSP - Norrköping280150Z AUTO 19009KT 9999 -DZ FEW061/// 14/10 Q1012= NO VALID TAF PUBLISHED
ESGJ - Jönköping280150Z AUTO 19013KT 9999 -RA FEW015/// OVC022/// 12/11 Q1012 RESHRA= 272330Z 2800/2802 18015G25KT CAVOK PROB40 2800/2802 RA BKN012=
ESKN - Skavsta280150Z 18012KT 9999 -RA BKN072 14/11 Q1012= 272330Z 2800/2824 19012KT CAVOK PROB40 2802/2805 20015G25KT RA TEMPO 2805/2811 20015G25KT SHRA BKN012 BKN040CB BECMG 2810/2812 25012KT=
ESSV - Visby280150Z AUTO 20014KT 9999 FEW014/// SCT150/// 14/12 Q1016= NO VALID TAF PUBLISHED
ESGG - Göteborg280150Z 22016KT 7000 BR BKN005 OVC010 13/13 Q1011 REDZ= AAA 280059Z 2800/2824 21020G30KT 6000 -RA SCT004 BKN025 TEMPO 2800/2807 2500 RA BKN004 BKN060CB BECMG 2806/2808 27015G25KT PROB40 2807/2815 SHRA BKN030CB=